Airport View

Enter AWOS ICAO identifier for current METAR.

ex. KFNL

25 Oct 2020 10:38

Frequency: 132.525

Phone: 970-864-2325

Other Area AWOS: KTEX - KMTJ - KAJZ - KGJT

TAF KMTJ 250531Z 2506/2606 17011KT P6SM SCT100 BKN200 WS020/24035KT FM251300 17008KT P6SM VCSH SCT080 BKN090 FM251700 24012G22KT P6SM -SHRA SCT050 BKN070 FM252200 29012G25KT 4SM -SHRA BR SCT025 OVC050 FM260000 28009KT 2SM SHRASN BR SCT010 OVC030 FM260300 28007KT 1SM -SHSN BR SCT010 OVC030